createdAt,value
2017-10-18T00:01:39.655Z,4.50
2017-10-18T00:04:07.194Z,5.90
2017-10-18T00:06:35.483Z,5.37
2017-10-18T00:09:03.791Z,5.33
2017-10-18T00:11:31.311Z,5.30
2017-10-18T00:13:59.614Z,6.20
2017-10-18T00:16:27.136Z,6.07
2017-10-18T00:18:54.676Z,4.80
2017-10-18T00:21:22.196Z,5.03
2017-10-18T00:23:49.735Z,5.50
2017-10-18T00:26:18.024Z,5.13
2017-10-18T00:28:45.564Z,5.60
2017-10-18T00:31:13.850Z,4.60
2017-10-18T00:33:42.151Z,5.30
2017-10-18T00:36:09.671Z,5.60
2017-10-18T00:38:37.212Z,7.60
2017-10-18T00:41:04.736Z,6.90
2017-10-18T00:43:32.279Z,5.10
2017-10-18T00:45:59.800Z,4.93
2017-10-18T00:48:27.343Z,4.00
2017-10-18T00:50:54.865Z,3.00
2017-10-18T00:53:22.407Z,3.60
2017-10-18T00:55:50.691Z,3.87
2017-10-18T00:58:18.239Z,3.67
2017-10-18T01:00:46.522Z,5.33
2017-10-18T01:03:14.850Z,5.03
2017-10-18T01:05:42.372Z,4.90
2017-10-18T01:08:09.915Z,3.73
2017-10-18T01:10:38.208Z,3.93
2017-10-18T01:13:05.744Z,4.50
2017-10-18T01:15:34.026Z,5.93
2017-10-18T01:18:02.333Z,4.50
2017-10-18T01:20:29.851Z,5.13
2017-10-18T01:22:58.160Z,4.07
2017-10-18T01:25:25.682Z,5.33
2017-10-18T01:27:53.223Z,5.07
2017-10-18T01:30:20.739Z,5.30
2017-10-18T01:32:48.275Z,3.40
2017-10-18T01:35:16.559Z,4.43
2017-10-18T01:37:44.873Z,3.70
2017-10-18T01:40:12.444Z,4.60
2017-10-18T01:42:39.998Z,3.57
2017-10-18T01:45:07.524Z,3.50
2017-10-18T01:47:35.043Z,3.90
2017-10-18T01:50:02.583Z,4.00
2017-10-18T01:52:30.103Z,4.30
2017-10-18T01:54:57.643Z,5.30
2017-10-18T01:57:25.161Z,4.40
2017-10-18T01:59:52.703Z,4.27
2017-10-18T02:02:20.214Z,4.90
2017-10-18T02:04:47.755Z,3.80
2017-10-18T02:07:15.274Z,4.10
2017-10-18T02:09:42.812Z,3.53
2017-10-18T02:12:11.099Z,4.13
2017-10-18T02:14:38.639Z,4.70
2017-10-18T02:17:06.922Z,6.17
2017-10-18T02:19:41.183Z,6.80
2017-10-18T02:22:08.701Z,6.43
2017-10-18T02:24:37.011Z,6.37
2017-10-18T02:27:04.539Z,4.73
2017-10-18T02:29:32.853Z,4.70
2017-10-18T02:32:00.375Z,3.53
2017-10-18T02:34:28.683Z,3.80
2017-10-18T02:36:56.209Z,4.03
2017-10-18T02:39:24.510Z,4.80
2017-10-18T02:41:52.036Z,4.80
2017-10-18T02:44:19.570Z,4.83
2017-10-18T02:46:47.134Z,5.10
2017-10-18T02:49:14.671Z,5.00
2017-10-18T02:51:42.195Z,4.40
2017-10-18T02:54:10.495Z,4.30
2017-10-18T02:56:38.013Z,3.50
2017-10-18T02:59:06.320Z,3.90
2017-10-18T03:01:33.844Z,3.50
2017-10-18T03:04:01.386Z,3.60
2017-10-18T03:06:28.911Z,2.73
2017-10-18T03:08:56.447Z,3.50
2017-10-18T03:11:24.728Z,3.13
2017-10-18T03:13:53.028Z,3.20
2017-10-18T03:16:20.538Z,4.30
2017-10-18T03:18:48.073Z,5.20
2017-10-18T03:21:15.591Z,5.17
2017-10-18T03:23:43.126Z,4.83
2017-10-18T03:26:11.405Z,4.30
2017-10-18T03:28:39.711Z,5.33
2017-10-18T03:31:07.232Z,4.10
2017-10-18T03:33:34.767Z,3.40
2017-10-18T03:36:02.279Z,3.50
2017-10-18T03:38:29.810Z,3.10
2017-10-18T03:40:57.322Z,5.40
2017-10-18T03:43:24.858Z,6.80
2017-10-18T03:45:52.374Z,5.57
2017-10-18T03:48:19.909Z,5.30
2017-10-18T03:50:47.425Z,6.00
2017-10-18T03:53:15.722Z,6.33
2017-10-18T03:55:43.241Z,7.57
2017-10-18T03:58:10.774Z,5.37
2017-10-18T04:00:38.311Z,6.57
2017-10-18T04:03:05.827Z,5.43
2017-10-18T04:05:33.362Z,5.67
2017-10-18T04:08:00.874Z,4.73
2017-10-18T04:10:28.412Z,4.03
2017-10-18T04:12:56.708Z,4.07
2017-10-18T04:15:24.238Z,4.73
2017-10-18T04:17:51.746Z,4.10
2017-10-18T04:20:19.286Z,5.40
2017-10-18T04:22:46.806Z,4.90
2017-10-18T04:25:14.514Z,5.47
2017-10-18T04:27:42.035Z,5.10
2017-10-18T04:30:09.579Z,5.10
2017-10-18T04:32:37.100Z,5.13
2017-10-18T04:35:04.641Z,7.50
2017-10-18T04:37:32.925Z,5.77
2017-10-18T04:40:01.223Z,7.87
2017-10-18T04:42:28.743Z,6.53
2017-10-18T04:44:57.037Z,5.63
2017-10-18T04:47:24.545Z,6.53
2017-10-18T04:49:52.080Z,4.87
2017-10-18T04:52:19.599Z,5.23
2017-10-18T04:54:47.905Z,3.97
2017-10-18T04:57:15.422Z,5.37
2017-10-18T04:59:42.961Z,5.40
2017-10-18T05:02:10.520Z,5.47
2017-10-18T05:04:38.066Z,7.30
2017-10-18T05:07:05.587Z,6.67
2017-10-18T05:09:33.886Z,6.50
2017-10-18T05:12:02.242Z,7.00
2017-10-18T05:14:30.537Z,5.90
2017-10-18T05:16:58.059Z,5.57
2017-10-18T05:19:25.591Z,5.03
2017-10-18T05:21:53.111Z,4.23
2017-10-18T05:24:20.647Z,5.00
2017-10-18T05:26:48.929Z,4.60
2017-10-18T05:29:17.229Z,7.20
2017-10-18T05:31:44.743Z,6.30
2017-10-18T05:34:12.323Z,6.63
2017-10-18T05:36:40.606Z,6.30
2017-10-18T05:39:08.903Z,5.67
2017-10-18T05:41:36.419Z,6.27
2017-10-18T05:44:03.958Z,7.00
2017-10-18T05:46:31.474Z,5.93
2017-10-18T05:48:59.781Z,6.80
2017-10-18T05:51:27.303Z,7.33
2017-10-18T05:53:55.602Z,8.87
2017-10-18T05:56:23.123Z,8.37
2017-10-18T05:58:50.665Z,7.63
2017-10-18T06:01:18.318Z,7.73
2017-10-18T06:03:45.850Z,7.00
2017-10-18T06:06:13.368Z,6.73
2017-10-18T06:08:41.663Z,6.30
2017-10-18T06:11:09.968Z,7.30
2017-10-18T06:13:37.482Z,7.60
2017-10-18T06:16:05.018Z,8.23
2017-10-18T06:18:32.533Z,8.60
2017-10-18T06:21:00.071Z,9.00
2017-10-18T06:23:28.355Z,8.83
2017-10-18T06:25:56.656Z,9.70
2017-10-18T06:28:24.183Z,9.83
2017-10-18T06:30:52.486Z,10.77
2017-10-18T06:33:20.002Z,11.50
2017-10-18T06:35:47.538Z,10.70
2017-10-18T06:38:15.058Z,8.93
2017-10-18T06:40:42.601Z,9.83
2017-10-18T06:43:10.895Z,9.63
2017-10-18T06:45:38.431Z,8.23
2017-10-18T06:48:06.717Z,9.37
2017-10-18T06:50:35.019Z,10.23
2017-10-18T06:53:02.538Z,8.47
2017-10-18T06:55:30.076Z,9.63
2017-10-18T06:57:57.648Z,8.93
2017-10-18T07:00:25.186Z,7.70
2017-10-18T07:02:52.707Z,8.40
2017-10-18T07:05:20.237Z,9.27
2017-10-18T07:07:47.754Z,13.00
2017-10-18T07:10:15.295Z,15.50
2017-10-18T07:12:42.823Z,14.07
2017-10-18T07:15:10.368Z,13.20
2017-10-18T07:17:37.890Z,18.77
2017-10-18T07:20:05.430Z,20.50
2017-10-18T07:22:32.958Z,21.13
2017-10-18T07:25:01.272Z,16.10
2017-10-18T07:27:28.795Z,14.20
2017-10-18T07:29:56.339Z,17.10
2017-10-18T07:32:23.859Z,15.63
2017-10-18T07:34:51.399Z,14.53
2017-10-18T07:37:19.682Z,12.90
2017-10-18T07:39:47.227Z,15.80
2017-10-18T07:42:15.515Z,14.80
2017-10-18T07:44:43.054Z,13.33
2017-10-18T07:47:11.345Z,14.80
2017-10-18T07:49:39.734Z,15.20
2017-10-18T07:52:07.258Z,16.60
2017-10-18T07:54:34.806Z,13.83
2017-10-18T07:57:02.339Z,16.10
2017-10-18T07:59:29.898Z,15.10
2017-10-18T08:01:57.418Z,15.33
2017-10-18T08:04:25.722Z,16.70
2017-10-18T08:06:53.243Z,14.43
2017-10-18T08:09:20.781Z,13.23
2017-10-18T08:11:48.313Z,12.23
2017-10-18T08:14:15.857Z,13.90
2017-10-18T08:16:43.383Z,11.00
2017-10-18T08:19:10.910Z,11.07
2017-10-18T08:21:38.450Z,9.57
2017-10-18T08:24:05.971Z,11.70
2017-10-18T08:26:34.285Z,10.90
2017-10-18T08:29:01.814Z,10.00
2017-10-18T08:31:30.119Z,12.43
2017-10-18T08:33:57.648Z,11.13
2017-10-18T08:36:25.192Z,9.67
2017-10-18T08:38:52.710Z,12.77
2017-10-18T08:41:20.249Z,12.67
2017-10-18T08:43:47.774Z,9.87
2017-10-18T08:46:15.309Z,9.90
2017-10-18T08:48:42.834Z,12.50
2017-10-18T08:51:10.376Z,11.63
2017-10-18T08:53:38.665Z,11.47
2017-10-18T08:56:06.256Z,14.23
2017-10-18T08:58:33.786Z,11.70
2017-10-18T09:01:01.327Z,10.73
2017-10-18T09:03:29.622Z,13.20
2017-10-18T09:05:57.167Z,14.13
2017-10-18T09:08:25.457Z,12.97
2017-10-18T09:10:53.768Z,11.23
2017-10-18T09:13:21.296Z,11.40
2017-10-18T09:15:48.839Z,11.80
2017-10-18T09:18:17.121Z,10.93
2017-10-18T09:20:45.434Z,11.97
2017-10-18T09:23:12.953Z,12.07
2017-10-18T09:25:41.259Z,9.93
2017-10-18T09:28:08.776Z,9.40
2017-10-18T09:30:36.322Z,11.57
2017-10-18T09:33:03.840Z,8.97
2017-10-18T09:35:31.392Z,12.00
2017-10-18T09:37:58.918Z,9.90
2017-10-18T09:40:26.462Z,11.40
2017-10-18T09:42:53.994Z,11.13
2017-10-18T09:45:21.539Z,12.63
2017-10-18T09:47:49.078Z,11.63
2017-10-18T09:50:17.393Z,11.47
2017-10-18T09:52:44.918Z,12.20
2017-10-18T09:55:13.227Z,13.17
2017-10-18T09:57:40.750Z,10.80
2017-10-18T10:00:09.062Z,15.43
2017-10-18T10:02:36.586Z,11.33
2017-10-18T10:05:04.895Z,12.20
2017-10-18T10:07:32.418Z,11.90
2017-10-18T10:10:00.726Z,11.50
2017-10-18T10:12:28.246Z,11.43
2017-10-18T10:14:55.785Z,12.83
2017-10-18T10:17:23.314Z,13.30
2017-10-18T10:19:50.854Z,12.87
2017-10-18T10:22:18.383Z,11.07
2017-10-18T10:24:45.951Z,11.13
2017-10-18T10:27:13.475Z,12.63
2017-10-18T10:29:41.002Z,10.70
2017-10-18T10:32:08.542Z,11.70
2017-10-18T10:34:36.829Z,12.90
2017-10-18T10:37:05.143Z,10.80
2017-10-18T10:39:32.676Z,13.37
2017-10-18T10:42:00.219Z,13.47
2017-10-18T10:44:28.510Z,13.43
2017-10-18T10:46:56.050Z,14.27
2017-10-18T10:49:23.577Z,13.43
2017-10-18T10:51:51.119Z,13.80
2017-10-18T10:54:18.638Z,14.70
2017-10-18T10:56:46.960Z,15.50
2017-10-18T10:59:14.486Z,15.90
2017-10-18T11:01:42.800Z,15.73
2017-10-18T11:04:10.327Z,14.00
2017-10-18T11:06:38.643Z,17.03
2017-10-18T11:09:06.170Z,17.17
2017-10-18T11:11:34.476Z,16.43
2017-10-18T11:14:02.001Z,16.57
2017-10-18T11:16:30.311Z,15.67
2017-10-18T11:18:57.838Z,15.30
2017-10-18T11:21:26.143Z,16.73
2017-10-18T11:23:53.695Z,17.17
2017-10-18T11:26:21.242Z,18.20
2017-10-18T11:28:49.525Z,17.37
2017-10-18T11:31:17.070Z,17.23
2017-10-18T11:33:45.358Z,15.67
2017-10-18T11:36:13.665Z,15.50
2017-10-18T11:38:41.185Z,15.30
2017-10-18T11:41:09.502Z,15.43
2017-10-18T11:43:37.030Z,16.97
2017-10-18T11:46:05.334Z,17.53
2017-10-18T11:48:32.850Z,18.43
2017-10-18T11:51:01.161Z,19.03
2017-10-18T11:53:28.685Z,19.23
2017-10-18T11:55:56.234Z,18.60
2017-10-18T11:58:23.765Z,17.90
2017-10-18T12:00:51.301Z,18.03
2017-10-18T12:03:18.829Z,17.43
2017-10-18T12:05:47.151Z,18.30
2017-10-18T12:08:14.676Z,15.97
2017-10-18T12:10:42.983Z,17.27
2017-10-18T12:13:10.506Z,16.27
2017-10-18T12:15:38.818Z,15.27
2017-10-18T12:18:06.343Z,18.10
2017-10-18T12:20:33.923Z,15.53
2017-10-18T12:23:02.241Z,15.23
2017-10-18T12:25:29.782Z,16.10
2017-10-18T12:27:57.312Z,15.70
2017-10-18T12:30:25.619Z,14.57
2017-10-18T12:32:53.149Z,13.30
2017-10-18T12:35:21.455Z,13.67
2017-10-18T12:37:48.978Z,12.70
2017-10-18T12:40:16.504Z,13.20
2017-10-18T12:42:44.054Z,12.67
2017-10-18T12:45:11.575Z,13.70
2017-10-18T12:47:39.877Z,13.70
2017-10-18T12:50:07.402Z,14.93
2017-10-18T12:52:35.710Z,13.60
2017-10-18T12:55:03.238Z,12.60
2017-10-18T12:57:31.547Z,12.20
2017-10-18T12:59:59.070Z,11.73
2017-10-18T13:02:26.614Z,12.30
2017-10-18T13:04:54.194Z,10.30
2017-10-18T13:07:22.505Z,10.73
2017-10-18T13:09:50.799Z,10.30
2017-10-18T13:12:18.346Z,10.20
2017-10-18T13:14:45.870Z,9.23
2017-10-18T13:17:13.410Z,12.27
2017-10-18T13:19:40.934Z,10.20
2017-10-18T13:22:08.480Z,10.63
2017-10-18T13:24:36.001Z,9.50
2017-10-18T13:27:03.543Z,10.87
2017-10-18T13:29:31.069Z,9.30
2017-10-18T13:31:58.615Z,10.80
2017-10-18T13:34:26.147Z,10.73
2017-10-18T13:36:53.687Z,10.90
2017-10-18T13:39:21.213Z,12.57
2017-10-18T13:41:48.758Z,12.60
2017-10-18T13:44:16.287Z,12.57
2017-10-18T13:46:43.834Z,12.17
2017-10-18T13:49:12.862Z,12.87
2017-10-18T13:51:41.171Z,13.03
2017-10-18T13:54:08.700Z,12.50
2017-10-18T13:56:37.005Z,14.07
2017-10-18T13:59:04.521Z,12.93
2017-10-18T14:01:32.054Z,13.23
2017-10-18T14:03:59.579Z,12.37
2017-10-18T14:06:27.126Z,10.90
2017-10-18T14:08:54.654Z,10.63
2017-10-18T14:11:22.200Z,10.40
2017-10-18T14:13:49.731Z,10.17
2017-10-18T14:16:17.273Z,10.10
2017-10-18T14:18:44.799Z,9.93
2017-10-18T14:21:12.350Z,9.00
2017-10-18T14:23:39.874Z,10.77
2017-10-18T14:26:07.410Z,12.53
2017-10-18T14:28:34.926Z,9.73
2017-10-18T14:31:02.471Z,10.50
2017-10-18T14:33:30.003Z,9.83
2017-10-18T14:35:57.542Z,7.87
2017-10-18T14:38:25.082Z,8.40
2017-10-18T14:40:53.410Z,8.60
2017-10-18T14:43:20.942Z,8.43
2017-10-18T14:45:48.481Z,7.70
2017-10-18T14:48:16.802Z,10.03
2017-10-18T14:50:44.327Z,10.43
2017-10-18T14:53:12.638Z,8.87
2017-10-18T14:55:40.158Z,8.70
2017-10-18T14:58:08.466Z,9.00
2017-10-18T15:00:35.978Z,9.30
2017-10-18T15:03:03.514Z,8.57
2017-10-18T15:05:31.032Z,9.00
2017-10-18T15:07:59.346Z,8.83
2017-10-18T15:10:26.869Z,8.40
2017-10-18T15:12:55.176Z,8.30
2017-10-18T15:15:22.696Z,8.47
2017-10-18T15:17:50.239Z,8.17
2017-10-18T15:20:17.761Z,9.53
2017-10-18T15:22:45.299Z,8.80
2017-10-18T15:25:12.817Z,8.33
2017-10-18T15:27:40.361Z,8.70
2017-10-18T15:30:07.878Z,8.13
2017-10-18T15:32:35.424Z,7.90
2017-10-18T15:35:03.710Z,7.60
2017-10-18T15:37:31.250Z,7.80
2017-10-18T15:39:58.765Z,7.90
2017-10-18T15:42:26.320Z,8.97
2017-10-18T15:44:53.838Z,8.90
2017-10-18T15:47:22.154Z,8.80
2017-10-18T15:49:49.670Z,8.80
2017-10-18T15:52:17.206Z,8.30
2017-10-18T15:54:44.726Z,7.97
2017-10-18T15:57:12.272Z,8.90
2017-10-18T15:59:39.800Z,8.73
2017-10-18T16:02:07.338Z,8.90
2017-10-18T16:04:34.858Z,8.57
2017-10-18T16:07:02.406Z,8.40
2017-10-18T16:09:30.686Z,8.20
2017-10-18T16:11:58.997Z,9.53
2017-10-18T16:14:26.538Z,8.07
2017-10-18T16:16:54.082Z,9.30
2017-10-18T16:19:22.370Z,9.17
2017-10-18T16:21:50.666Z,8.50
2017-10-18T16:24:18.200Z,8.60
2017-10-18T16:26:46.505Z,8.93
2017-10-18T16:29:14.023Z,9.00
2017-10-18T16:31:41.562Z,8.07
2017-10-18T16:34:09.073Z,7.90
2017-10-18T16:36:37.385Z,7.63
2017-10-18T16:39:04.900Z,8.93
2017-10-18T16:41:32.421Z,7.80
2017-10-18T16:43:59.964Z,7.50
2017-10-18T16:46:27.486Z,8.50
2017-10-18T16:48:55.038Z,9.80
2017-10-18T16:51:22.579Z,9.07
2017-10-18T16:53:50.122Z,9.33
2017-10-18T16:56:17.642Z,8.87
2017-10-18T16:58:45.946Z,8.17
2017-10-18T17:01:13.481Z,8.60
2017-10-18T17:03:41.792Z,8.60
2017-10-18T17:06:09.310Z,8.37
2017-10-18T17:08:36.846Z,7.67
2017-10-18T17:11:04.371Z,8.90
2017-10-18T17:13:31.906Z,8.20
2017-10-18T17:15:59.449Z,8.77
2017-10-18T17:18:26.977Z,8.90
2017-10-18T17:20:54.526Z,8.87
2017-10-18T17:23:22.051Z,8.87
2017-10-18T17:25:49.596Z,8.53
2017-10-18T17:28:17.119Z,7.20
2017-10-18T17:30:44.657Z,6.97
2017-10-18T17:33:12.944Z,7.30
2017-10-18T17:35:41.243Z,7.43
2017-10-18T17:38:08.760Z,7.20
2017-10-18T17:40:36.470Z,6.50
2017-10-18T17:43:03.990Z,7.27
2017-10-18T17:45:31.518Z,9.30
2017-10-18T17:47:59.054Z,8.03
2017-10-18T17:50:26.573Z,8.53
2017-10-18T17:52:54.127Z,10.00
2017-10-18T17:55:21.646Z,9.07
2017-10-18T17:57:49.201Z,10.70
2017-10-18T18:00:16.723Z,9.13
2017-10-18T18:02:44.254Z,7.93
2017-10-18T18:05:11.775Z,8.17
2017-10-18T18:07:40.076Z,8.47
2017-10-18T18:10:07.590Z,7.50
2017-10-18T18:12:35.127Z,6.63
2017-10-18T18:15:02.643Z,8.10
2017-10-18T18:17:30.950Z,6.37
2017-10-18T18:19:58.468Z,6.83
2017-10-18T18:22:26.774Z,8.33
2017-10-18T18:24:55.055Z,9.33
2017-10-18T18:27:22.593Z,8.20
2017-10-18T18:29:50.869Z,8.30
2017-10-18T18:32:18.415Z,9.60
2017-10-18T18:34:45.938Z,10.93
2017-10-18T18:37:13.484Z,9.03
2017-10-18T18:39:41.001Z,8.00
2017-10-18T18:42:08.537Z,8.13
2017-10-18T18:44:36.057Z,7.67
2017-10-18T18:47:04.365Z,7.80
2017-10-18T18:49:31.890Z,6.90
2017-10-18T18:52:00.190Z,6.00
2017-10-18T18:54:28.470Z,6.10
2017-10-18T18:56:56.762Z,7.00
2017-10-18T18:59:24.288Z,7.30
2017-10-18T19:01:51.806Z,8.57
2017-10-18T19:04:19.341Z,9.80
2017-10-18T19:06:46.858Z,9.97
2017-10-18T19:09:14.395Z,9.50
2017-10-18T19:11:41.909Z,8.13
2017-10-18T19:14:09.444Z,8.00
2017-10-18T19:16:36.982Z,7.00
2017-10-18T19:19:04.510Z,7.63
2017-10-18T19:21:32.789Z,7.53
2017-10-18T19:24:01.091Z,8.07
2017-10-18T19:26:28.601Z,8.70
2017-10-18T19:28:56.134Z,7.03
2017-10-18T19:31:23.654Z,6.63
2017-10-18T19:33:51.949Z,7.00
2017-10-18T19:36:20.230Z,5.70
2017-10-18T19:38:47.766Z,5.50
2017-10-18T19:41:16.054Z,5.67
2017-10-18T19:43:44.362Z,4.87
2017-10-18T19:46:11.875Z,4.73
2017-10-18T19:51:12.376Z,5.77
2017-10-18T19:53:39.907Z,5.50
2017-10-18T19:56:07.427Z,7.17
2017-10-18T19:58:34.972Z,6.83
2017-10-18T20:01:02.487Z,5.60
2017-10-18T20:03:30.026Z,6.77
2017-10-18T20:05:57.553Z,7.67
2017-10-18T20:08:25.092Z,7.13
2017-10-18T20:10:53.383Z,8.03
2017-10-18T20:13:21.683Z,6.93
2017-10-18T20:15:49.219Z,7.37
2017-10-18T20:18:16.759Z,5.83
2017-10-18T20:20:44.292Z,5.07
2017-10-18T20:23:11.827Z,4.63
2017-10-18T20:25:39.354Z,5.37
2017-10-18T20:28:06.887Z,5.17
2017-10-18T20:30:34.409Z,4.87
2017-10-18T20:33:02.702Z,5.80
2017-10-18T20:35:30.219Z,5.40
2017-10-18T20:37:57.753Z,6.73
2017-10-18T20:40:25.263Z,5.30
2017-10-18T20:42:52.810Z,5.30
2017-10-18T20:45:20.325Z,5.93
2017-10-18T20:47:47.866Z,5.57
2017-10-18T20:50:15.379Z,6.77
2017-10-18T20:52:42.920Z,8.27
2017-10-18T20:55:10.435Z,7.50
2017-10-18T20:57:38.746Z,8.53
2017-10-18T21:00:06.261Z,8.63
2017-10-18T21:02:33.803Z,7.83
2017-10-18T21:05:01.329Z,6.30
2017-10-18T21:07:29.027Z,7.50
2017-10-18T21:09:56.537Z,6.97
2017-10-18T21:12:24.818Z,6.87
2017-10-18T21:14:53.120Z,5.40
2017-10-18T21:17:20.638Z,4.27
2017-10-18T21:19:48.170Z,4.47
2017-10-18T21:22:16.451Z,3.57
2017-10-18T21:24:43.990Z,4.83
2017-10-18T21:27:11.502Z,5.67
2017-10-18T21:29:39.042Z,6.60
2017-10-18T21:32:06.568Z,6.50
2017-10-18T21:34:34.110Z,6.90
2017-10-18T21:37:02.387Z,6.00
2017-10-18T21:39:30.847Z,5.60
2017-10-18T21:41:58.370Z,7.07
2017-10-18T21:44:25.911Z,4.77
2017-10-18T21:46:53.453Z,5.90
2017-10-18T21:49:21.739Z,5.90
2017-10-18T21:51:50.052Z,4.80
2017-10-18T21:54:17.573Z,5.53
2017-10-18T21:56:45.110Z,5.10
2017-10-18T21:59:12.633Z,5.10
2017-10-18T22:01:40.167Z,4.87
2017-10-18T22:04:08.457Z,5.40
2017-10-18T22:06:36.755Z,5.10
2017-10-18T22:09:04.273Z,6.70
2017-10-18T22:11:31.806Z,7.10
2017-10-18T22:13:59.331Z,7.93
2017-10-18T22:16:26.870Z,6.80
2017-10-18T22:18:55.147Z,6.97
2017-10-18T22:21:23.453Z,6.03
2017-10-18T22:23:50.994Z,7.20
2017-10-18T22:26:19.293Z,5.93
2017-10-18T22:28:46.819Z,6.80
2017-10-18T22:31:14.364Z,6.70
2017-10-18T22:33:41.878Z,7.57
2017-10-18T22:36:09.406Z,6.20
2017-10-18T22:38:36.919Z,6.30
2017-10-18T22:41:04.459Z,7.30
2017-10-18T22:43:32.744Z,8.07
2017-10-18T22:46:00.281Z,6.57
2017-10-18T22:48:27.799Z,6.20
2017-10-18T22:50:55.334Z,6.83
2017-10-18T22:53:22.854Z,6.30
2017-10-18T22:55:50.387Z,6.00
2017-10-18T22:58:17.912Z,6.30
2017-10-18T23:00:45.451Z,5.70
2017-10-18T23:03:13.744Z,5.27
2017-10-18T23:05:42.041Z,5.30
2017-10-18T23:08:09.555Z,4.43
2017-10-18T23:10:37.104Z,5.23
2017-10-18T23:13:04.621Z,7.80
2017-10-18T23:15:32.150Z,7.50
2017-10-18T23:17:59.668Z,5.30
2017-10-18T23:20:27.207Z,5.80
2017-10-18T23:22:54.721Z,4.90
2017-10-18T23:25:22.261Z,4.13
2017-10-18T23:27:49.781Z,4.80
2017-10-18T23:30:18.085Z,4.80
2017-10-18T23:32:45.594Z,4.73
2017-10-18T23:35:13.132Z,4.60
2017-10-18T23:37:40.650Z,4.67
2017-10-18T23:40:08.192Z,4.20
2017-10-18T23:42:36.485Z,3.83
2017-10-18T23:45:04.770Z,3.80
2017-10-18T23:47:33.067Z,3.93
2017-10-18T23:50:00.589Z,4.17
2017-10-18T23:52:33.800Z,4.60
2017-10-18T23:55:02.084Z,4.00
2017-10-18T23:57:30.390Z,4.40
2017-10-18T23:59:57.910Z,4.63
